sensor_id;sensor_type;location;lat;lon;timestamp;P1;durP1;ratioP1;P2;durP2;ratioP2
10605;SDS011;5350;42.698;23.148;2022-11-02T00:01:41;17.03;;;5.07;;
10605;SDS011;5350;42.698;23.148;2022-11-02T00:04:09;9.43;;;4.70;;
10605;SDS011;5350;42.698;23.148;2022-11-02T00:06:36;14.27;;;4.57;;
10605;SDS011;5350;42.698;23.148;2022-11-02T00:09:03;11.20;;;5.00;;
10605;SDS011;5350;42.698;23.148;2022-11-02T00:11:30;11.00;;;4.90;;
10605;SDS011;5350;42.698;23.148;2022-11-02T00:13:58;12.33;;;5.20;;
10605;SDS011;5350;42.698;23.148;2022-11-02T00:16:24;14.63;;;5.13;;
10605;SDS011;5350;42.698;23.148;2022-11-02T00:18:52;15.13;;;4.70;;
10605;SDS011;5350;42.698;23.148;2022-11-02T00:21:21;15.77;;;5.23;;
10605;SDS011;5350;42.698;23.148;2022-11-02T00:23:50;10.97;;;5.20;;
10605;SDS011;5350;42.698;23.148;2022-11-02T00:26:18;11.73;;;5.10;;
10605;SDS011;5350;42.698;23.148;2022-11-02T00:28:45;9.57;;;4.97;;
10605;SDS011;5350;42.698;23.148;2022-11-02T00:31:13;11.50;;;4.97;;
10605;SDS011;5350;42.698;23.148;2022-11-02T00:33:40;13.23;;;4.73;;
10605;SDS011;5350;42.698;23.148;2022-11-02T00:36:07;10.67;;;4.97;;
10605;SDS011;5350;42.698;23.148;2022-11-02T00:38:34;13.10;;;4.63;;
10605;SDS011;5350;42.698;23.148;2022-11-02T00:41:01;12.70;;;5.23;;
10605;SDS011;5350;42.698;23.148;2022-11-02T00:43:27;11.97;;;4.87;;
10605;SDS011;5350;42.698;23.148;2022-11-02T00:45:54;10.03;;;4.47;;
10605;SDS011;5350;42.698;23.148;2022-11-02T00:48:22;10.60;;;4.63;;
10605;SDS011;5350;42.698;23.148;2022-11-02T00:50:49;12.20;;;4.40;;
10605;SDS011;5350;42.698;23.148;2022-11-02T00:53:16;12.73;;;4.77;;
10605;SDS011;5350;42.698;23.148;2022-11-02T00:55:42;11.23;;;4.90;;
10605;SDS011;5350;42.698;23.148;2022-11-02T00:58:09;15.33;;;5.17;;
10605;SDS011;5350;42.698;23.148;2022-11-02T01:00:36;14.57;;;5.20;;
10605;SDS011;5350;42.698;23.148;2022-11-02T01:03:03;9.87;;;4.80;;
10605;SDS011;5350;42.698;23.148;2022-11-02T01:05:31;13.03;;;5.60;;
10605;SDS011;5350;42.698;23.148;2022-11-02T01:07:57;11.07;;;4.80;;
10605;SDS011;5350;42.698;23.148;2022-11-02T01:10:24;10.10;;;5.53;;
10605;SDS011;5350;42.698;23.148;2022-11-02T01:12:52;14.83;;;5.87;;
10605;SDS011;5350;42.698;23.148;2022-11-02T01:15:19;13.17;;;4.57;;
10605;SDS011;5350;42.698;23.148;2022-11-02T01:17:45;15.57;;;5.77;;
10605;SDS011;5350;42.698;23.148;2022-11-02T01:20:12;13.67;;;5.57;;
10605;SDS011;5350;42.698;23.148;2022-11-02T01:22:40;18.03;;;5.60;;
10605;SDS011;5350;42.698;23.148;2022-11-02T01:25:07;12.23;;;5.27;;
10605;SDS011;5350;42.698;23.148;2022-11-02T01:27:34;10.70;;;4.80;;
10605;SDS011;5350;42.698;23.148;2022-11-02T01:30:01;8.83;;;5.30;;
10605;SDS011;5350;42.698;23.148;2022-11-02T01:32:28;10.20;;;5.50;;
10605;SDS011;5350;42.698;23.148;2022-11-02T01:34:55;9.90;;;4.57;;
10605;SDS011;5350;42.698;23.148;2022-11-02T01:37:22;11.97;;;4.93;;
10605;SDS011;5350;42.698;23.148;2022-11-02T01:39:50;11.27;;;5.43;;
10605;SDS011;5350;42.698;23.148;2022-11-02T01:42:17;10.60;;;5.13;;
10605;SDS011;5350;42.698;23.148;2022-11-02T01:44:45;9.27;;;5.17;;
10605;SDS011;5350;42.698;23.148;2022-11-02T01:47:13;11.57;;;5.73;;
10605;SDS011;5350;42.698;23.148;2022-11-02T01:49:46;10.90;;;6.10;;
10605;SDS011;5350;42.698;23.148;2022-11-02T01:52:18;10.47;;;5.53;;
10605;SDS011;5350;42.698;23.148;2022-11-02T01:54:47;12.53;;;5.90;;
10605;SDS011;5350;42.698;23.148;2022-11-02T01:57:19;12.77;;;5.37;;
10605;SDS011;5350;42.698;23.148;2022-11-02T01:59:48;13.90;;;5.27;;
10605;SDS011;5350;42.698;23.148;2022-11-02T02:02:19;11.63;;;5.70;;
10605;SDS011;5350;42.698;23.148;2022-11-02T02:04:50;15.23;;;5.20;;
10605;SDS011;5350;42.698;23.148;2022-11-02T02:07:19;11.97;;;5.17;;
10605;SDS011;5350;42.698;23.148;2022-11-02T02:09:49;13.53;;;5.37;;
10605;SDS011;5350;42.698;23.148;2022-11-02T02:12:18;10.00;;;5.17;;
10605;SDS011;5350;42.698;23.148;2022-11-02T02:14:45;11.20;;;6.10;;
10605;SDS011;5350;42.698;23.148;2022-11-02T02:17:25;9.13;;;5.23;;
10605;SDS011;5350;42.698;23.148;2022-11-02T02:19:59;10.93;;;6.00;;
10605;SDS011;5350;42.698;23.148;2022-11-02T02:22:46;14.17;;;5.50;;
10605;SDS011;5350;42.698;23.148;2022-11-02T02:25:46;10.90;;;5.10;;
10605;SDS011;5350;42.698;23.148;2022-11-02T02:28:24;8.70;;;5.20;;
10605;SDS011;5350;42.698;23.148;2022-11-02T02:31:01;15.70;;;5.37;;
10605;SDS011;5350;42.698;23.148;2022-11-02T02:33:33;10.13;;;5.33;;
10605;SDS011;5350;42.698;23.148;2022-11-02T02:36:05;13.63;;;5.63;;
10605;SDS011;5350;42.698;23.148;2022-11-02T02:38:41;10.73;;;5.10;;
10605;SDS011;5350;42.698;23.148;2022-11-02T02:41:11;9.47;;;5.10;;
10605;SDS011;5350;42.698;23.148;2022-11-02T02:43:46;13.67;;;5.77;;
10605;SDS011;5350;42.698;23.148;2022-11-02T02:46:17;8.53;;;4.80;;
10605;SDS011;5350;42.698;23.148;2022-11-02T02:48:47;14.60;;;5.20;;
10605;SDS011;5350;42.698;23.148;2022-11-02T02:51:18;19.73;;;5.63;;
10605;SDS011;5350;42.698;23.148;2022-11-02T02:53:49;12.53;;;5.43;;
10605;SDS011;5350;42.698;23.148;2022-11-02T02:56:22;12.57;;;4.60;;
10605;SDS011;5350;42.698;23.148;2022-11-02T02:58:55;9.70;;;5.07;;
10605;SDS011;5350;42.698;23.148;2022-11-02T03:01:26;10.37;;;4.80;;
10605;SDS011;5350;42.698;23.148;2022-11-02T03:03:53;12.73;;;4.90;;
10605;SDS011;5350;42.698;23.148;2022-11-02T03:06:21;14.10;;;5.37;;
10605;SDS011;5350;42.698;23.148;2022-11-02T03:08:56;13.20;;;5.33;;
10605;SDS011;5350;42.698;23.148;2022-11-02T03:11:31;11.23;;;5.43;;
10605;SDS011;5350;42.698;23.148;2022-11-02T03:14:03;12.27;;;5.33;;
10605;SDS011;5350;42.698;23.148;2022-11-02T03:16:43;10.07;;;5.57;;
10605;SDS011;5350;42.698;23.148;2022-11-02T03:19:27;13.90;;;5.30;;
10605;SDS011;5350;42.698;23.148;2022-11-02T03:22:02;12.70;;;6.10;;
10605;SDS011;5350;42.698;23.148;2022-11-02T03:24:34;12.87;;;5.33;;
10605;SDS011;5350;42.698;23.148;2022-11-02T03:27:10;13.83;;;5.67;;
10605;SDS011;5350;42.698;23.148;2022-11-02T03:29:46;13.77;;;6.20;;
10605;SDS011;5350;42.698;23.148;2022-11-02T03:32:19;12.53;;;5.73;;
10605;SDS011;5350;42.698;23.148;2022-11-02T03:34:51;15.67;;;5.60;;
10605;SDS011;5350;42.698;23.148;2022-11-02T03:37:23;15.47;;;5.63;;
10605;SDS011;5350;42.698;23.148;2022-11-02T03:39:54;13.67;;;5.83;;
10605;SDS011;5350;42.698;23.148;2022-11-02T03:42:29;13.50;;;6.60;;
10605;SDS011;5350;42.698;23.148;2022-11-02T03:45:03;12.50;;;5.80;;
10605;SDS011;5350;42.698;23.148;2022-11-02T03:47:34;11.90;;;6.03;;
10605;SDS011;5350;42.698;23.148;2022-11-02T03:50:03;11.37;;;6.40;;
10605;SDS011;5350;42.698;23.148;2022-11-02T03:52:33;11.03;;;6.10;;
10605;SDS011;5350;42.698;23.148;2022-11-02T03:55:03;14.30;;;6.77;;
10605;SDS011;5350;42.698;23.148;2022-11-02T03:57:35;11.37;;;6.23;;
10605;SDS011;5350;42.698;23.148;2022-11-02T04:00:08;14.80;;;5.80;;
10605;SDS011;5350;42.698;23.148;2022-11-02T04:02:37;11.47;;;5.90;;
10605;SDS011;5350;42.698;23.148;2022-11-02T04:05:06;18.17;;;6.47;;
10605;SDS011;5350;42.698;23.148;2022-11-02T04:07:33;16.60;;;6.90;;
10605;SDS011;5350;42.698;23.148;2022-11-02T04:10:17;16.27;;;6.57;;
10605;SDS011;5350;42.698;23.148;2022-11-02T04:12:44;13.40;;;6.53;;
10605;SDS011;5350;42.698;23.148;2022-11-02T04:15:29;12.37;;;5.70;;
10605;SDS011;5350;42.698;23.148;2022-11-02T04:17:56;12.00;;;6.30;;
10605;SDS011;5350;42.698;23.148;2022-11-02T04:20:40;17.03;;;6.00;;
10605;SDS011;5350;42.698;23.148;2022-11-02T04:23:07;11.73;;;6.57;;
10605;SDS011;5350;42.698;23.148;2022-11-02T04:25:51;12.57;;;6.10;;
10605;SDS011;5350;42.698;23.148;2022-11-02T04:28:18;19.23;;;6.67;;
10605;SDS011;5350;42.698;23.148;2022-11-02T04:30:47;15.07;;;6.67;;
10605;SDS011;5350;42.698;23.148;2022-11-02T04:33:14;14.27;;;7.10;;
10605;SDS011;5350;42.698;23.148;2022-11-02T04:35:59;11.90;;;7.17;;
10605;SDS011;5350;42.698;23.148;2022-11-02T04:38:27;16.43;;;7.50;;
10605;SDS011;5350;42.698;23.148;2022-11-02T04:41:05;20.00;;;7.97;;
10605;SDS011;5350;42.698;23.148;2022-11-02T04:43:49;17.40;;;7.87;;
10605;SDS011;5350;42.698;23.148;2022-11-02T04:46:18;17.00;;;7.80;;
10605;SDS011;5350;42.698;23.148;2022-11-02T04:48:45;16.97;;;7.17;;
10605;SDS011;5350;42.698;23.148;2022-11-02T04:51:12;12.97;;;7.00;;
10605;SDS011;5350;42.698;23.148;2022-11-02T04:53:39;18.00;;;6.70;;
10605;SDS011;5350;42.698;23.148;2022-11-02T04:56:06;14.80;;;7.47;;
10605;SDS011;5350;42.698;23.148;2022-11-02T04:58:33;20.50;;;7.13;;
10605;SDS011;5350;42.698;23.148;2022-11-02T05:01:03;16.30;;;8.07;;
10605;SDS011;5350;42.698;23.148;2022-11-02T05:03:32;18.80;;;10.53;;
10605;SDS011;5350;42.698;23.148;2022-11-02T05:05:58;11.93;;;7.40;;
10605;SDS011;5350;42.698;23.148;2022-11-02T05:08:25;13.50;;;7.87;;
10605;SDS011;5350;42.698;23.148;2022-11-02T05:10:52;16.30;;;7.53;;
10605;SDS011;5350;42.698;23.148;2022-11-02T05:13:20;16.47;;;7.73;;
10605;SDS011;5350;42.698;23.148;2022-11-02T05:15:47;12.63;;;7.33;;
10605;SDS011;5350;42.698;23.148;2022-11-02T05:18:13;18.10;;;7.87;;
10605;SDS011;5350;42.698;23.148;2022-11-02T05:20:42;16.17;;;7.87;;
10605;SDS011;5350;42.698;23.148;2022-11-02T05:23:14;19.17;;;8.27;;
10605;SDS011;5350;42.698;23.148;2022-11-02T05:25:41;13.10;;;7.87;;
10605;SDS011;5350;42.698;23.148;2022-11-02T05:28:07;18.53;;;8.37;;
10605;SDS011;5350;42.698;23.148;2022-11-02T05:30:34;19.37;;;7.97;;
10605;SDS011;5350;42.698;23.148;2022-11-02T05:33:01;16.23;;;7.23;;
10605;SDS011;5350;42.698;23.148;2022-11-02T05:35:28;25.00;;;8.83;;
10605;SDS011;5350;42.698;23.148;2022-11-02T05:37:56;16.50;;;8.60;;
10605;SDS011;5350;42.698;23.148;2022-11-02T05:40:22;14.53;;;7.63;;
10605;SDS011;5350;42.698;23.148;2022-11-02T05:42:49;16.47;;;7.53;;
10605;SDS011;5350;42.698;23.148;2022-11-02T05:45:16;19.60;;;8.30;;
10605;SDS011;5350;42.698;23.148;2022-11-02T05:47:42;13.33;;;8.07;;
10605;SDS011;5350;42.698;23.148;2022-11-02T05:50:09;23.80;;;9.07;;
10605;SDS011;5350;42.698;23.148;2022-11-02T05:52:36;19.73;;;7.87;;
10605;SDS011;5350;42.698;23.148;2022-11-02T05:55:05;14.47;;;7.73;;
10605;SDS011;5350;42.698;23.148;2022-11-02T05:57:32;15.53;;;8.03;;
10605;SDS011;5350;42.698;23.148;2022-11-02T05:59:58;22.73;;;8.57;;
10605;SDS011;5350;42.698;23.148;2022-11-02T06:02:25;16.77;;;8.00;;
10605;SDS011;5350;42.698;23.148;2022-11-02T06:04:53;18.97;;;8.73;;
10605;SDS011;5350;42.698;23.148;2022-11-02T06:07:19;21.17;;;8.33;;
10605;SDS011;5350;42.698;23.148;2022-11-02T06:09:46;15.67;;;7.87;;
10605;SDS011;5350;42.698;23.148;2022-11-02T06:12:14;16.57;;;7.53;;
10605;SDS011;5350;42.698;23.148;2022-11-02T06:14:41;15.43;;;8.40;;
10605;SDS011;5350;42.698;23.148;2022-11-02T06:17:08;16.93;;;7.37;;
10605;SDS011;5350;42.698;23.148;2022-11-02T06:19:34;17.53;;;7.00;;
10605;SDS011;5350;42.698;23.148;2022-11-02T06:22:01;15.30;;;5.93;;
10605;SDS011;5350;42.698;23.148;2022-11-02T06:24:28;13.60;;;6.53;;
10605;SDS011;5350;42.698;23.148;2022-11-02T06:26:54;13.50;;;6.30;;
10605;SDS011;5350;42.698;23.148;2022-11-02T06:29:22;14.93;;;5.90;;
10605;SDS011;5350;42.698;23.148;2022-11-02T06:31:49;15.10;;;6.07;;
10605;SDS011;5350;42.698;23.148;2022-11-02T06:34:16;9.93;;;6.13;;
10605;SDS011;5350;42.698;23.148;2022-11-02T06:36:42;16.23;;;6.37;;
10605;SDS011;5350;42.698;23.148;2022-11-02T06:39:09;15.07;;;6.23;;
10605;SDS011;5350;42.698;23.148;2022-11-02T06:41:36;16.63;;;6.73;;
10605;SDS011;5350;42.698;23.148;2022-11-02T06:44:03;18.77;;;6.50;;
10605;SDS011;5350;42.698;23.148;2022-11-02T06:46:31;17.33;;;6.60;;
10605;SDS011;5350;42.698;23.148;2022-11-02T06:48:58;14.47;;;6.67;;
10605;SDS011;5350;42.698;23.148;2022-11-02T06:51:24;15.00;;;6.70;;
10605;SDS011;5350;42.698;23.148;2022-11-02T06:53:51;14.47;;;6.67;;
10605;SDS011;5350;42.698;23.148;2022-11-02T06:56:17;14.03;;;5.83;;
10605;SDS011;5350;42.698;23.148;2022-11-02T06:58:44;13.47;;;6.03;;
10605;SDS011;5350;42.698;23.148;2022-11-02T07:01:11;13.50;;;6.33;;
10605;SDS011;5350;42.698;23.148;2022-11-02T07:03:40;14.37;;;6.17;;
10605;SDS011;5350;42.698;23.148;2022-11-02T07:06:07;11.07;;;5.43;;
10605;SDS011;5350;42.698;23.148;2022-11-02T07:08:34;11.53;;;5.50;;
10605;SDS011;5350;42.698;23.148;2022-11-02T07:11:01;14.13;;;5.83;;
10605;SDS011;5350;42.698;23.148;2022-11-02T07:13:28;14.60;;;5.20;;
10605;SDS011;5350;42.698;23.148;2022-11-02T07:15:55;14.13;;;6.33;;
10605;SDS011;5350;42.698;23.148;2022-11-02T07:18:22;12.47;;;5.20;;
10605;SDS011;5350;42.698;23.148;2022-11-02T07:20:50;12.27;;;5.90;;
10605;SDS011;5350;42.698;23.148;2022-11-02T07:23:17;15.88;;;6.13;;
10605;SDS011;5350;42.698;23.148;2022-11-02T07:25:47;14.95;;;5.78;;
10605;SDS011;5350;42.698;23.148;2022-11-02T07:28:14;13.00;;;6.25;;
10605;SDS011;5350;42.698;23.148;2022-11-02T07:30:41;14.03;;;5.73;;
10605;SDS011;5350;42.698;23.148;2022-11-02T07:33:07;10.93;;;5.50;;
10605;SDS011;5350;42.698;23.148;2022-11-02T07:35:34;13.73;;;6.10;;
10605;SDS011;5350;42.698;23.148;2022-11-02T07:38:03;14.68;;;5.82;;
10605;SDS011;5350;42.698;23.148;2022-11-02T07:40:31;10.05;;;5.45;;
10605;SDS011;5350;42.698;23.148;2022-11-02T07:42:59;17.08;;;6.57;;
10605;SDS011;5350;42.698;23.148;2022-11-02T07:45:26;13.82;;;6.45;;
10605;SDS011;5350;42.698;23.148;2022-11-02T07:47:54;14.00;;;6.55;;
10605;SDS011;5350;42.698;23.148;2022-11-02T07:50:21;11.52;;;5.32;;
10605;SDS011;5350;42.698;23.148;2022-11-02T07:52:50;10.73;;;5.80;;
10605;SDS011;5350;42.698;23.148;2022-11-02T07:55:19;16.08;;;6.05;;
10605;SDS011;5350;42.698;23.148;2022-11-02T07:57:53;9.20;;;5.65;;
10605;SDS011;5350;42.698;23.148;2022-11-02T08:00:20;10.48;;;5.57;;
10605;SDS011;5350;42.698;23.148;2022-11-02T08:02:47;18.40;;;6.00;;
10605;SDS011;5350;42.698;23.148;2022-11-02T08:05:14;14.45;;;5.88;;
10605;SDS011;5350;42.698;23.148;2022-11-02T08:07:40;13.27;;;5.45;;
10605;SDS011;5350;42.698;23.148;2022-11-02T08:10:07;15.18;;;5.10;;
10605;SDS011;5350;42.698;23.148;2022-11-02T08:12:36;20.08;;;5.35;;
10605;SDS011;5350;42.698;23.148;2022-11-02T08:15:03;14.60;;;5.47;;
10605;SDS011;5350;42.698;23.148;2022-11-02T08:17:30;14.18;;;5.93;;
10605;SDS011;5350;42.698;23.148;2022-11-02T08:19:57;15.65;;;5.55;;
10605;SDS011;5350;42.698;23.148;2022-11-02T08:22:23;11.82;;;5.53;;
10605;SDS011;5350;42.698;23.148;2022-11-02T08:24:50;15.70;;;5.75;;
10605;SDS011;5350;42.698;23.148;2022-11-02T08:27:17;14.23;;;6.10;;
10605;SDS011;5350;42.698;23.148;2022-11-02T08:29:45;14.25;;;6.20;;
10605;SDS011;5350;42.698;23.148;2022-11-02T08:32:11;10.85;;;4.93;;
10605;SDS011;5350;42.698;23.148;2022-11-02T08:34:38;19.50;;;5.95;;
10605;SDS011;5350;42.698;23.148;2022-11-02T08:37:05;20.10;;;6.45;;
10605;SDS011;5350;42.698;23.148;2022-11-02T08:39:32;14.60;;;5.10;;
10605;SDS011;5350;42.698;23.148;2022-11-02T08:41:59;17.15;;;6.00;;
10605;SDS011;5350;42.698;23.148;2022-11-02T08:44:26;13.30;;;5.00;;
10605;SDS011;5350;42.698;23.148;2022-11-02T08:46:54;16.55;;;4.80;;
10605;SDS011;5350;42.698;23.148;2022-11-02T08:49:21;13.55;;;4.57;;
10605;SDS011;5350;42.698;23.148;2022-11-02T08:51:48;11.43;;;4.10;;
10605;SDS011;5350;42.698;23.148;2022-11-02T08:54:15;12.75;;;4.15;;
10605;SDS011;5350;42.698;23.148;2022-11-02T08:56:41;16.40;;;4.15;;
10605;SDS011;5350;42.698;23.148;2022-11-02T08:59:08;12.45;;;4.32;;
10605;SDS011;5350;42.698;23.148;2022-11-02T09:01:35;13.32;;;5.38;;
10605;SDS011;5350;42.698;23.148;2022-11-02T09:04:04;12.00;;;6.22;;
10605;SDS011;5350;42.698;23.148;2022-11-02T09:06:31;14.75;;;5.78;;
10605;SDS011;5350;42.698;23.148;2022-11-02T09:08:57;14.23;;;4.50;;
10605;SDS011;5350;42.698;23.148;2022-11-02T09:11:24;13.52;;;5.13;;
10605;SDS011;5350;42.698;23.148;2022-11-02T09:13:51;12.63;;;4.57;;
10605;SDS011;5350;42.698;23.148;2022-11-02T09:16:17;10.02;;;3.80;;
10605;SDS011;5350;42.698;23.148;2022-11-02T09:18:44;9.90;;;3.47;;
10605;SDS011;5350;42.698;23.148;2022-11-02T09:21:12;14.48;;;3.55;;
10605;SDS011;5350;42.698;23.148;2022-11-02T09:23:39;9.48;;;3.47;;
10605;SDS011;5350;42.698;23.148;2022-11-02T09:26:06;13.38;;;4.95;;
10605;SDS011;5350;42.698;23.148;2022-11-02T09:28:32;13.38;;;4.28;;
10605;SDS011;5350;42.698;23.148;2022-11-02T09:30:59;10.00;;;3.20;;
10605;SDS011;5350;42.698;23.148;2022-11-02T09:33:26;12.73;;;3.40;;
10605;SDS011;5350;42.698;23.148;2022-11-02T09:35:53;10.32;;;3.38;;
10605;SDS011;5350;42.698;23.148;2022-11-02T09:38:22;14.07;;;3.22;;
10605;SDS011;5350;42.698;23.148;2022-11-02T09:40:50;8.98;;;3.28;;
10605;SDS011;5350;42.698;23.148;2022-11-02T09:43:28;9.95;;;3.00;;
10605;SDS011;5350;42.698;23.148;2022-11-02T09:46:05;8.65;;;3.20;;
10605;SDS011;5350;42.698;23.148;2022-11-02T09:48:35;15.57;;;3.53;;
10605;SDS011;5350;42.698;23.148;2022-11-02T09:51:07;9.02;;;3.47;;
10605;SDS011;5350;42.698;23.148;2022-11-02T09:53:40;8.75;;;3.08;;
10605;SDS011;5350;42.698;23.148;2022-11-02T09:56:12;10.80;;;3.05;;
10605;SDS011;5350;42.698;23.148;2022-11-02T09:58:43;9.70;;;3.08;;
10605;SDS011;5350;42.698;23.148;2022-11-02T10:01:18;7.53;;;3.22;;
10605;SDS011;5350;42.698;23.148;2022-11-02T10:03:58;11.73;;;3.47;;
10605;SDS011;5350;42.698;23.148;2022-11-02T10:06:46;10.55;;;3.00;;
10605;SDS011;5350;42.698;23.148;2022-11-02T10:09:23;10.85;;;3.10;;
10605;SDS011;5350;42.698;23.148;2022-11-02T10:12:00;6.85;;;2.75;;
10605;SDS011;5350;42.698;23.148;2022-11-02T10:14:36;13.45;;;3.78;;
10605;SDS011;5350;42.698;23.148;2022-11-02T10:17:09;14.13;;;3.42;;
10605;SDS011;5350;42.698;23.148;2022-11-02T10:19:39;10.13;;;3.67;;
10605;SDS011;5350;42.698;23.148;2022-11-02T10:22:09;13.48;;;2.70;;
10605;SDS011;5350;42.698;23.148;2022-11-02T10:24:41;9.02;;;3.20;;
10605;SDS011;5350;42.698;23.148;2022-11-02T10:27:11;10.50;;;3.00;;
10605;SDS011;5350;42.698;23.148;2022-11-02T10:29:43;12.88;;;3.03;;
10605;SDS011;5350;42.698;23.148;2022-11-02T10:32:14;7.90;;;2.72;;
10605;SDS011;5350;42.698;23.148;2022-11-02T10:34:42;7.53;;;2.78;;
10605;SDS011;5350;42.698;23.148;2022-11-02T10:37:16;8.18;;;2.60;;
10605;SDS011;5350;42.698;23.148;2022-11-02T10:40:06;7.32;;;3.13;;
10605;SDS011;5350;42.698;23.148;2022-11-02T10:42:45;8.52;;;2.70;;
10605;SDS011;5350;42.698;23.148;2022-11-02T10:48:14;15.10;;;3.30;;
10605;SDS011;5350;42.698;23.148;2022-11-02T10:50:52;10.30;;;2.67;;
10605;SDS011;5350;42.698;23.148;2022-11-02T10:53:25;9.20;;;3.38;;
10605;SDS011;5350;42.698;23.148;2022-11-02T10:55:55;9.35;;;2.50;;
10605;SDS011;5350;42.698;23.148;2022-11-02T10:58:27;9.30;;;2.90;;
10605;SDS011;5350;42.698;23.148;2022-11-02T11:01:04;11.25;;;2.90;;
10605;SDS011;5350;42.698;23.148;2022-11-02T11:03:32;10.25;;;2.92;;
10605;SDS011;5350;42.698;23.148;2022-11-02T11:05:59;10.63;;;2.78;;
10605;SDS011;5350;42.698;23.148;2022-11-02T11:08:29;8.93;;;2.75;;
10605;SDS011;5350;42.698;23.148;2022-11-02T11:11:16;7.88;;;2.83;;
10605;SDS011;5350;42.698;23.148;2022-11-02T11:13:51;11.18;;;3.45;;
10605;SDS011;5350;42.698;23.148;2022-11-02T11:16:30;8.48;;;3.25;;
10605;SDS011;5350;42.698;23.148;2022-11-02T11:19:03;8.80;;;3.28;;
10605;SDS011;5350;42.698;23.148;2022-11-02T11:21:35;9.95;;;3.03;;
10605;SDS011;5350;42.698;23.148;2022-11-02T11:24:12;10.38;;;3.45;;
10605;SDS011;5350;42.698;23.148;2022-11-02T11:26:46;8.52;;;2.80;;
10605;SDS011;5350;42.698;23.148;2022-11-02T11:29:25;10.55;;;3.15;;
10605;SDS011;5350;42.698;23.148;2022-11-02T11:31:57;7.80;;;3.33;;
10605;SDS011;5350;42.698;23.148;2022-11-02T11:34:24;10.70;;;2.97;;
10605;SDS011;5350;42.698;23.148;2022-11-02T11:37:02;16.35;;;3.10;;
10605;SDS011;5350;42.698;23.148;2022-11-02T11:39:30;9.40;;;3.50;;
10605;SDS011;5350;42.698;23.148;2022-11-02T11:41:59;9.50;;;3.40;;
10605;SDS011;5350;42.698;23.148;2022-11-02T11:44:28;13.88;;;3.80;;
10605;SDS011;5350;42.698;23.148;2022-11-02T11:46:56;13.73;;;3.45;;
10605;SDS011;5350;42.698;23.148;2022-11-02T11:49:24;10.25;;;3.58;;
10605;SDS011;5350;42.698;23.148;2022-11-02T11:51:53;10.98;;;3.35;;
10605;SDS011;5350;42.698;23.148;2022-11-02T11:54:23;10.52;;;3.35;;
10605;SDS011;5350;42.698;23.148;2022-11-02T11:56:52;9.82;;;3.67;;
10605;SDS011;5350;42.698;23.148;2022-11-02T11:59:25;12.65;;;3.70;;
10605;SDS011;5350;42.698;23.148;2022-11-02T12:01:56;12.45;;;2.97;;
10605;SDS011;5350;42.698;23.148;2022-11-02T12:04:27;7.53;;;2.92;;
10605;SDS011;5350;42.698;23.148;2022-11-02T12:06:59;12.13;;;3.25;;
10605;SDS011;5350;42.698;23.148;2022-11-02T12:09:48;11.55;;;3.60;;
10605;SDS011;5350;42.698;23.148;2022-11-02T12:12:30;14.73;;;3.58;;
10605;SDS011;5350;42.698;23.148;2022-11-02T12:15:13;12.32;;;3.25;;
10605;SDS011;5350;42.698;23.148;2022-11-02T12:17:53;9.40;;;3.38;;
10605;SDS011;5350;42.698;23.148;2022-11-02T12:20:35;10.98;;;3.35;;
10605;SDS011;5350;42.698;23.148;2022-11-02T12:23:20;10.35;;;3.63;;
10605;SDS011;5350;42.698;23.148;2022-11-02T12:26:04;8.27;;;3.28;;
10605;SDS011;5350;42.698;23.148;2022-11-02T12:28:44;11.45;;;3.55;;
10605;SDS011;5350;42.698;23.148;2022-11-02T12:31:21;8.60;;;3.42;;
10605;SDS011;5350;42.698;23.148;2022-11-02T12:33:58;6.10;;;3.05;;
10605;SDS011;5350;42.698;23.148;2022-11-02T12:36:42;10.50;;;3.40;;
10605;SDS011;5350;42.698;23.148;2022-11-02T12:39:20;9.32;;;3.20;;
10605;SDS011;5350;42.698;23.148;2022-11-02T12:41:58;11.70;;;3.45;;
10605;SDS011;5350;42.698;23.148;2022-11-02T12:44:46;8.85;;;3.53;;
10605;SDS011;5350;42.698;23.148;2022-11-02T12:47:28;8.50;;;3.30;;
10605;SDS011;5350;42.698;23.148;2022-11-02T12:50:04;6.82;;;3.45;;
10605;SDS011;5350;42.698;23.148;2022-11-02T12:52:40;10.90;;;3.33;;
10605;SDS011;5350;42.698;23.148;2022-11-02T12:55:16;8.77;;;2.97;;
10605;SDS011;5350;42.698;23.148;2022-11-02T12:57:45;7.97;;;3.00;;
10605;SDS011;5350;42.698;23.148;2022-11-02T13:00:15;6.93;;;3.58;;
10605;SDS011;5350;42.698;23.148;2022-11-02T13:02:48;12.38;;;3.90;;
10605;SDS011;5350;42.698;23.148;2022-11-02T13:05:24;15.77;;;3.40;;
10605;SDS011;5350;42.698;23.148;2022-11-02T13:07:57;13.57;;;3.95;;
10605;SDS011;5350;42.698;23.148;2022-11-02T13:10:30;10.98;;;3.10;;
10605;SDS011;5350;42.698;23.148;2022-11-02T13:13:01;6.10;;;3.05;;
10605;SDS011;5350;42.698;23.148;2022-11-02T13:15:30;9.35;;;3.20;;
10605;SDS011;5350;42.698;23.148;2022-11-02T13:18:02;12.18;;;3.40;;
10605;SDS011;5350;42.698;23.148;2022-11-02T13:20:38;10.77;;;3.38;;
10605;SDS011;5350;42.698;23.148;2022-11-02T13:23:14;9.82;;;3.20;;
10605;SDS011;5350;42.698;23.148;2022-11-02T13:25:45;11.57;;;3.20;;
10605;SDS011;5350;42.698;23.148;2022-11-02T13:28:17;11.52;;;3.55;;
10605;SDS011;5350;42.698;23.148;2022-11-02T13:30:51;9.98;;;3.47;;
10605;SDS011;5350;42.698;23.148;2022-11-02T13:33:22;9.55;;;2.97;;
10605;SDS011;5350;42.698;23.148;2022-11-02T13:35:51;9.85;;;3.35;;
10605;SDS011;5350;42.698;23.148;2022-11-02T13:38:22;12.07;;;3.75;;
10605;SDS011;5350;42.698;23.148;2022-11-02T13:40:57;13.85;;;3.22;;
10605;SDS011;5350;42.698;23.148;2022-11-02T13:43:43;12.90;;;3.83;;
10605;SDS011;5350;42.698;23.148;2022-11-02T13:49:25;11.52;;;4.53;;
10605;SDS011;5350;42.698;23.148;2022-11-02T13:51:57;10.50;;;3.83;;
10605;SDS011;5350;42.698;23.148;2022-11-02T13:54:28;12.45;;;3.63;;
10605;SDS011;5350;42.698;23.148;2022-11-02T13:56:59;9.30;;;3.28;;
10605;SDS011;5350;42.698;23.148;2022-11-02T13:59:27;7.80;;;3.40;;
10605;SDS011;5350;42.698;23.148;2022-11-02T14:01:57;13.60;;;3.85;;
10605;SDS011;5350;42.698;23.148;2022-11-02T14:04:28;11.45;;;3.90;;
10605;SDS011;5350;42.698;23.148;2022-11-02T14:07:04;10.00;;;3.35;;
10605;SDS011;5350;42.698;23.148;2022-11-02T14:09:34;9.77;;;3.40;;
10605;SDS011;5350;42.698;23.148;2022-11-02T14:12:10;10.40;;;3.72;;
10605;SDS011;5350;42.698;23.148;2022-11-02T14:17:59;10.93;;;4.35;;
10605;SDS011;5350;42.698;23.148;2022-11-02T14:20:34;7.60;;;3.33;;
10605;SDS011;5350;42.698;23.148;2022-11-02T14:23:29;10.25;;;3.55;;
10605;SDS011;5350;42.698;23.148;2022-11-02T14:26:00;10.40;;;3.60;;
10605;SDS011;5350;42.698;23.148;2022-11-02T14:28:31;10.40;;;3.17;;
10605;SDS011;5350;42.698;23.148;2022-11-02T14:31:24;12.05;;;3.45;;
10605;SDS011;5350;42.698;23.148;2022-11-02T14:34:08;10.10;;;4.18;;
10605;SDS011;5350;42.698;23.148;2022-11-02T14:37:03;12.48;;;4.00;;
10605;SDS011;5350;42.698;23.148;2022-11-02T14:39:46;7.95;;;3.78;;
10605;SDS011;5350;42.698;23.148;2022-11-02T14:42:36;12.70;;;4.00;;
10605;SDS011;5350;42.698;23.148;2022-11-02T14:45:20;12.73;;;3.78;;
10605;SDS011;5350;42.698;23.148;2022-11-02T14:47:55;12.73;;;4.22;;
10605;SDS011;5350;42.698;23.148;2022-11-02T14:50:24;14.57;;;4.10;;
10605;SDS011;5350;42.698;23.148;2022-11-02T14:52:54;12.18;;;4.53;;
10605;SDS011;5350;42.698;23.148;2022-11-02T14:55:24;11.13;;;4.03;;
10605;SDS011;5350;42.698;23.148;2022-11-02T14:57:53;16.10;;;8.38;;
10605;SDS011;5350;42.698;23.148;2022-11-02T15:00:26;11.13;;;4.78;;
10605;SDS011;5350;42.698;23.148;2022-11-02T15:02:58;12.40;;;4.40;;
10605;SDS011;5350;42.698;23.148;2022-11-02T15:05:26;14.55;;;4.20;;
10605;SDS011;5350;42.698;23.148;2022-11-02T15:07:58;13.10;;;4.03;;